Washington, District of Columbia
Traffic Map
Current Weather Conditions
Washington, District of Columbia
Broken Clouds
Broken Clouds
51°
Feels Like: 51°
Wind Chill: 51° Ceiling: 5000
Heat Index: 51° Visibility: 10mi
Dew Point: 33° Wind: 20mph
Humidity: 50% Direction: 310° (NW)
Pressure: 29.74in Gusts: 32mph
Raw Report DataKDCA 191552Z 31017G28KT 10SM BKN050 BKN120 11/01 A2974 RMK AO2 PK WND 31033/1454 SLP071 T01060006
Traffic Incident Summary
Active as of:
Severity:
Category:
InformationThere was an issue retrieving the traffic information for this location. Please try a different location or try again shortly.
Advertisements